sensor_id;sensor_type;location;lat;lon;timestamp;temperature;humidity
46231;DHT22;31949;51.404;-0.038;2022-07-24T00:00:59;19.30;99.90
46231;DHT22;31949;51.404;-0.038;2022-07-24T00:03:26;19.30;99.90
46231;DHT22;31949;51.404;-0.038;2022-07-24T00:06:02;19.20;99.90
46231;DHT22;31949;51.404;-0.038;2022-07-24T00:08:29;19.20;99.90
46231;DHT22;31949;51.404;-0.038;2022-07-24T00:10:57;19.20;99.90
46231;DHT22;31949;51.404;-0.038;2022-07-24T00:13:24;19.30;99.90
46231;DHT22;31949;51.404;-0.038;2022-07-24T00:15:51;19.30;99.90
46231;DHT22;31949;51.404;-0.038;2022-07-24T00:18:19;19.30;99.90
46231;DHT22;31949;51.404;-0.038;2022-07-24T00:20:46;19.20;99.90
46231;DHT22;31949;51.404;-0.038;2022-07-24T00:23:15;19.10;99.90
46231;DHT22;31949;51.404;-0.038;2022-07-24T00:25:42;19.20;99.90
46231;DHT22;31949;51.404;-0.038;2022-07-24T00:28:09;19.20;99.90
46231;DHT22;31949;51.404;-0.038;2022-07-24T00:30:36;19.20;99.90
46231;DHT22;31949;51.404;-0.038;2022-07-24T00:33:05;19.20;99.90
46231;DHT22;31949;51.404;-0.038;2022-07-24T00:35:32;19.20;99.90
46231;DHT22;31949;51.404;-0.038;2022-07-24T00:37:59;19.10;99.90
46231;DHT22;31949;51.404;-0.038;2022-07-24T00:40:27;19.10;99.90
46231;DHT22;31949;51.404;-0.038;2022-07-24T00:42:54;19.20;99.90
46231;DHT22;31949;51.404;-0.038;2022-07-24T00:45:21;19.30;99.90
46231;DHT22;31949;51.404;-0.038;2022-07-24T00:47:52;19.20;99.90
46231;DHT22;31949;51.404;-0.038;2022-07-24T00:50:24;19.00;99.90
46231;DHT22;31949;51.404;-0.038;2022-07-24T00:52:52;18.90;99.90
46231;DHT22;31949;51.404;-0.038;2022-07-24T00:55:20;18.90;99.90
46231;DHT22;31949;51.404;-0.038;2022-07-24T00:57:48;19.00;99.90
46231;DHT22;31949;51.404;-0.038;2022-07-24T01:00:18;18.90;99.90
46231;DHT22;31949;51.404;-0.038;2022-07-24T01:02:46;19.00;99.90
46231;DHT22;31949;51.404;-0.038;2022-07-24T01:05:14;19.10;99.90
46231;DHT22;31949;51.404;-0.038;2022-07-24T01:07:42;19.00;99.90
46231;DHT22;31949;51.404;-0.038;2022-07-24T01:10:09;18.90;99.90
46231;DHT22;31949;51.404;-0.038;2022-07-24T01:12:38;18.90;99.90
46231;DHT22;31949;51.404;-0.038;2022-07-24T01:15:08;18.90;99.90
46231;DHT22;31949;51.404;-0.038;2022-07-24T01:17:40;18.90;99.90
46231;DHT22;31949;51.404;-0.038;2022-07-24T01:20:09;19.00;99.90
46231;DHT22;31949;51.404;-0.038;2022-07-24T01:22:37;19.00;99.90
46231;DHT22;31949;51.404;-0.038;2022-07-24T01:25:04;19.00;99.90
46231;DHT22;31949;51.404;-0.038;2022-07-24T01:27:32;18.90;99.90
46231;DHT22;31949;51.404;-0.038;2022-07-24T01:29:59;19.10;99.90
46231;DHT22;31949;51.404;-0.038;2022-07-24T01:32:26;18.90;99.90
46231;DHT22;31949;51.404;-0.038;2022-07-24T01:34:53;18.90;99.90
46231;DHT22;31949;51.404;-0.038;2022-07-24T01:37:20;18.80;99.90
46231;DHT22;31949;51.404;-0.038;2022-07-24T01:39:48;18.90;99.90
46231;DHT22;31949;51.404;-0.038;2022-07-24T01:42:15;18.90;99.90
46231;DHT22;31949;51.404;-0.038;2022-07-24T01:44:42;19.00;99.90
46231;DHT22;31949;51.404;-0.038;2022-07-24T01:47:10;18.90;99.90
46231;DHT22;31949;51.404;-0.038;2022-07-24T01:49:37;18.90;99.90
46231;DHT22;31949;51.404;-0.038;2022-07-24T01:52:04;18.70;99.90
46231;DHT22;31949;51.404;-0.038;2022-07-24T01:54:32;18.70;99.90
46231;DHT22;31949;51.404;-0.038;2022-07-24T01:56:59;18.80;99.90
46231;DHT22;31949;51.404;-0.038;2022-07-24T01:59:26;18.80;99.90
46231;DHT22;31949;51.404;-0.038;2022-07-24T02:01:54;18.70;99.90
46231;DHT22;31949;51.404;-0.038;2022-07-24T02:04:21;18.60;99.90
46231;DHT22;31949;51.404;-0.038;2022-07-24T02:06:48;18.60;99.90
46231;DHT22;31949;51.404;-0.038;2022-07-24T02:09:16;18.60;99.90
46231;DHT22;31949;51.404;-0.038;2022-07-24T02:11:43;18.70;99.90
46231;DHT22;31949;51.404;-0.038;2022-07-24T02:14:10;18.70;99.90
46231;DHT22;31949;51.404;-0.038;2022-07-24T02:16:37;18.70;99.90
46231;DHT22;31949;51.404;-0.038;2022-07-24T02:19:05;18.70;99.90
46231;DHT22;31949;51.404;-0.038;2022-07-24T02:21:32;18.60;99.90
46231;DHT22;31949;51.404;-0.038;2022-07-24T02:23:59;18.60;99.90
46231;DHT22;31949;51.404;-0.038;2022-07-24T02:26:27;18.60;99.90
46231;DHT22;31949;51.404;-0.038;2022-07-24T02:28:54;18.60;99.90
46231;DHT22;31949;51.404;-0.038;2022-07-24T02:31:22;18.60;99.90
46231;DHT22;31949;51.404;-0.038;2022-07-24T02:33:49;18.60;99.90
46231;DHT22;31949;51.404;-0.038;2022-07-24T02:36:16;18.50;99.90
46231;DHT22;31949;51.404;-0.038;2022-07-24T02:38:44;18.50;99.90
46231;DHT22;31949;51.404;-0.038;2022-07-24T02:41:11;18.40;99.90
46231;DHT22;31949;51.404;-0.038;2022-07-24T02:43:38;18.40;99.90
46231;DHT22;31949;51.404;-0.038;2022-07-24T02:46:05;18.40;99.90
46231;DHT22;31949;51.404;-0.038;2022-07-24T02:48:33;18.60;99.90
46231;DHT22;31949;51.404;-0.038;2022-07-24T02:51:00;18.60;99.90
46231;DHT22;31949;51.404;-0.038;2022-07-24T02:53:27;18.60;99.90
46231;DHT22;31949;51.404;-0.038;2022-07-24T02:55:55;18.50;99.90
46231;DHT22;31949;51.404;-0.038;2022-07-24T02:58:22;18.50;99.90
46231;DHT22;31949;51.404;-0.038;2022-07-24T03:00:52;18.50;99.90
46231;DHT22;31949;51.404;-0.038;2022-07-24T03:03:19;18.50;99.90
46231;DHT22;31949;51.404;-0.038;2022-07-24T03:05:47;18.50;99.90
46231;DHT22;31949;51.404;-0.038;2022-07-24T03:08:15;18.40;99.90
46231;DHT22;31949;51.404;-0.038;2022-07-24T03:10:42;18.30;99.90
46231;DHT22;31949;51.404;-0.038;2022-07-24T03:13:12;18.40;99.90
46231;DHT22;31949;51.404;-0.038;2022-07-24T03:15:39;18.30;99.90
46231;DHT22;31949;51.404;-0.038;2022-07-24T03:18:06;18.40;99.90
46231;DHT22;31949;51.404;-0.038;2022-07-24T03:20:47;18.30;99.90
46231;DHT22;31949;51.404;-0.038;2022-07-24T03:23:15;18.30;99.90
46231;DHT22;31949;51.404;-0.038;2022-07-24T03:25:42;18.30;99.90
46231;DHT22;31949;51.404;-0.038;2022-07-24T03:28:09;18.40;99.90
46231;DHT22;31949;51.404;-0.038;2022-07-24T03:30:36;18.40;99.90
46231;DHT22;31949;51.404;-0.038;2022-07-24T03:33:04;18.40;99.90
46231;DHT22;31949;51.404;-0.038;2022-07-24T03:35:31;18.40;99.90
46231;DHT22;31949;51.404;-0.038;2022-07-24T03:37:58;18.40;99.90
46231;DHT22;31949;51.404;-0.038;2022-07-24T03:40:26;18.40;99.90
46231;DHT22;31949;51.404;-0.038;2022-07-24T03:42:53;18.40;99.90
46231;DHT22;31949;51.404;-0.038;2022-07-24T03:45:21;18.40;99.90
46231;DHT22;31949;51.404;-0.038;2022-07-24T03:47:48;18.40;99.90
46231;DHT22;31949;51.404;-0.038;2022-07-24T03:50:15;18.40;99.90
46231;DHT22;31949;51.404;-0.038;2022-07-24T03:52:49;18.40;99.90
46231;DHT22;31949;51.404;-0.038;2022-07-24T03:55:16;18.40;99.90
46231;DHT22;31949;51.404;-0.038;2022-07-24T03:57:44;18.40;99.90
46231;DHT22;31949;51.404;-0.038;2022-07-24T04:00:11;18.40;99.90
46231;DHT22;31949;51.404;-0.038;2022-07-24T04:02:39;18.40;99.90
46231;DHT22;31949;51.404;-0.038;2022-07-24T04:05:08;18.40;99.90
46231;DHT22;31949;51.404;-0.038;2022-07-24T04:07:37;18.40;99.90
46231;DHT22;31949;51.404;-0.038;2022-07-24T04:10:06;18.40;99.90
46231;DHT22;31949;51.404;-0.038;2022-07-24T04:12:34;18.30;99.90
46231;DHT22;31949;51.404;-0.038;2022-07-24T04:15:02;18.20;99.90
46231;DHT22;31949;51.404;-0.038;2022-07-24T04:17:29;18.20;99.90
46231;DHT22;31949;51.404;-0.038;2022-07-24T04:19:57;18.30;99.90
46231;DHT22;31949;51.404;-0.038;2022-07-24T04:22:24;18.20;99.90
46231;DHT22;31949;51.404;-0.038;2022-07-24T04:24:51;18.20;99.90
46231;DHT22;31949;51.404;-0.038;2022-07-24T04:27:21;18.20;99.90
46231;DHT22;31949;51.404;-0.038;2022-07-24T04:29:48;18.30;99.90
46231;DHT22;31949;51.404;-0.038;2022-07-24T04:32:15;18.30;99.90
46231;DHT22;31949;51.404;-0.038;2022-07-24T04:34:43;18.20;99.90
46231;DHT22;31949;51.404;-0.038;2022-07-24T04:37:10;18.30;99.90
46231;DHT22;31949;51.404;-0.038;2022-07-24T04:39:37;18.20;99.90
46231;DHT22;31949;51.404;-0.038;2022-07-24T04:42:05;18.30;99.90
46231;DHT22;31949;51.404;-0.038;2022-07-24T04:44:33;18.30;99.90
46231;DHT22;31949;51.404;-0.038;2022-07-24T04:47:00;18.20;99.90
46231;DHT22;31949;51.404;-0.038;2022-07-24T04:49:27;18.30;99.90
46231;DHT22;31949;51.404;-0.038;2022-07-24T04:51:54;18.20;99.90
46231;DHT22;31949;51.404;-0.038;2022-07-24T04:54:21;18.20;99.90
46231;DHT22;31949;51.404;-0.038;2022-07-24T04:56:49;18.30;99.90
46231;DHT22;31949;51.404;-0.038;2022-07-24T04:59:16;18.30;99.90
46231;DHT22;31949;51.404;-0.038;2022-07-24T05:01:43;18.30;99.90
46231;DHT22;31949;51.404;-0.038;2022-07-24T05:04:14;18.30;99.90
46231;DHT22;31949;51.404;-0.038;2022-07-24T05:06:42;18.30;99.90
46231;DHT22;31949;51.404;-0.038;2022-07-24T05:09:09;18.30;99.90
46231;DHT22;31949;51.404;-0.038;2022-07-24T05:11:36;18.30;99.90
46231;DHT22;31949;51.404;-0.038;2022-07-24T05:14:04;18.40;99.90
46231;DHT22;31949;51.404;-0.038;2022-07-24T05:16:31;18.50;99.90
46231;DHT22;31949;51.404;-0.038;2022-07-24T05:18:58;18.50;99.90
46231;DHT22;31949;51.404;-0.038;2022-07-24T05:21:26;18.50;99.90
46231;DHT22;31949;51.404;-0.038;2022-07-24T05:23:54;18.40;99.90
46231;DHT22;31949;51.404;-0.038;2022-07-24T05:26:21;18.60;99.90
46231;DHT22;31949;51.404;-0.038;2022-07-24T05:28:49;18.50;99.90
46231;DHT22;31949;51.404;-0.038;2022-07-24T05:31:16;18.50;99.90
46231;DHT22;31949;51.404;-0.038;2022-07-24T05:33:43;18.50;99.90
46231;DHT22;31949;51.404;-0.038;2022-07-24T05:36:11;18.50;99.90
46231;DHT22;31949;51.404;-0.038;2022-07-24T05:38:38;18.60;99.90
46231;DHT22;31949;51.404;-0.038;2022-07-24T05:41:07;18.60;99.90
46231;DHT22;31949;51.404;-0.038;2022-07-24T05:43:34;18.50;99.90
46231;DHT22;31949;51.404;-0.038;2022-07-24T05:46:01;18.60;99.90
46231;DHT22;31949;51.404;-0.038;2022-07-24T05:48:30;18.60;99.90
46231;DHT22;31949;51.404;-0.038;2022-07-24T05:50:57;18.60;99.90
46231;DHT22;31949;51.404;-0.038;2022-07-24T05:53:25;18.60;99.90
46231;DHT22;31949;51.404;-0.038;2022-07-24T05:55:52;18.70;99.90
46231;DHT22;31949;51.404;-0.038;2022-07-24T05:58:19;18.60;99.90
46231;DHT22;31949;51.404;-0.038;2022-07-24T06:00:47;18.70;99.90
46231;DHT22;31949;51.404;-0.038;2022-07-24T06:03:14;18.70;99.90
46231;DHT22;31949;51.404;-0.038;2022-07-24T06:05:41;18.70;99.90
46231;DHT22;31949;51.404;-0.038;2022-07-24T06:08:08;18.80;99.90
46231;DHT22;31949;51.404;-0.038;2022-07-24T06:10:36;18.90;99.90
46231;DHT22;31949;51.404;-0.038;2022-07-24T06:13:03;19.00;99.90
46231;DHT22;31949;51.404;-0.038;2022-07-24T06:15:30;19.10;99.90
46231;DHT22;31949;51.404;-0.038;2022-07-24T06:18:00;19.20;99.90
46231;DHT22;31949;51.404;-0.038;2022-07-24T06:20:28;19.40;99.90
46231;DHT22;31949;51.404;-0.038;2022-07-24T06:22:55;19.50;99.90
46231;DHT22;31949;51.404;-0.038;2022-07-24T06:25:22;19.60;99.90
46231;DHT22;31949;51.404;-0.038;2022-07-24T06:27:50;19.60;99.90
46231;DHT22;31949;51.404;-0.038;2022-07-24T06:30:23;19.70;99.90
46231;DHT22;31949;51.404;-0.038;2022-07-24T06:32:57;19.90;99.90
46231;DHT22;31949;51.404;-0.038;2022-07-24T06:35:26;20.10;99.90
46231;DHT22;31949;51.404;-0.038;2022-07-24T06:37:55;20.30;99.90
46231;DHT22;31949;51.404;-0.038;2022-07-24T06:40:22;20.50;99.90
46231;DHT22;31949;51.404;-0.038;2022-07-24T06:42:50;20.50;99.90
46231;DHT22;31949;51.404;-0.038;2022-07-24T06:45:17;20.60;99.90
46231;DHT22;31949;51.404;-0.038;2022-07-24T06:47:45;20.70;99.90
46231;DHT22;31949;51.404;-0.038;2022-07-24T06:50:13;20.70;99.90
46231;DHT22;31949;51.404;-0.038;2022-07-24T06:52:40;20.80;99.90
46231;DHT22;31949;51.404;-0.038;2022-07-24T06:55:08;20.80;99.90
46231;DHT22;31949;51.404;-0.038;2022-07-24T06:57:36;21.00;99.90
46231;DHT22;31949;51.404;-0.038;2022-07-24T07:00:05;21.30;99.90
46231;DHT22;31949;51.404;-0.038;2022-07-24T07:02:33;21.40;99.90
46231;DHT22;31949;51.404;-0.038;2022-07-24T07:05:00;21.50;99.90
46231;DHT22;31949;51.404;-0.038;2022-07-24T07:07:27;21.60;99.90
46231;DHT22;31949;51.404;-0.038;2022-07-24T07:09:55;21.70;99.90
46231;DHT22;31949;51.404;-0.038;2022-07-24T07:12:23;21.90;99.90
46231;DHT22;31949;51.404;-0.038;2022-07-24T07:14:50;21.70;99.90
46231;DHT22;31949;51.404;-0.038;2022-07-24T07:17:17;21.90;99.90
46231;DHT22;31949;51.404;-0.038;2022-07-24T07:19:45;22.00;99.90
46231;DHT22;31949;51.404;-0.038;2022-07-24T07:22:12;22.00;99.90
46231;DHT22;31949;51.404;-0.038;2022-07-24T07:24:39;22.00;99.90
46231;DHT22;31949;51.404;-0.038;2022-07-24T07:27:12;22.00;99.90
46231;DHT22;31949;51.404;-0.038;2022-07-24T07:29:39;22.10;99.90
46231;DHT22;31949;51.404;-0.038;2022-07-24T07:32:06;21.90;99.90
46231;DHT22;31949;51.404;-0.038;2022-07-24T07:34:33;22.10;99.90
46231;DHT22;31949;51.404;-0.038;2022-07-24T07:37:00;22.10;99.90
46231;DHT22;31949;51.404;-0.038;2022-07-24T07:39:28;22.30;99.90
46231;DHT22;31949;51.404;-0.038;2022-07-24T07:41:55;22.40;99.90
46231;DHT22;31949;51.404;-0.038;2022-07-24T07:44:22;22.50;99.90
46231;DHT22;31949;51.404;-0.038;2022-07-24T07:46:49;22.40;99.90
46231;DHT22;31949;51.404;-0.038;2022-07-24T07:49:16;22.20;99.90
46231;DHT22;31949;51.404;-0.038;2022-07-24T07:51:44;22.50;99.90
46231;DHT22;31949;51.404;-0.038;2022-07-24T07:54:15;22.70;99.90
46231;DHT22;31949;51.404;-0.038;2022-07-24T07:56:42;22.80;99.90
46231;DHT22;31949;51.404;-0.038;2022-07-24T07:59:09;22.90;99.90
46231;DHT22;31949;51.404;-0.038;2022-07-24T08:01:36;23.00;99.90
46231;DHT22;31949;51.404;-0.038;2022-07-24T08:04:04;23.20;99.90
46231;DHT22;31949;51.404;-0.038;2022-07-24T08:06:31;23.30;99.30
46231;DHT22;31949;51.404;-0.038;2022-07-24T08:08:58;23.30;99.60
46231;DHT22;31949;51.404;-0.038;2022-07-24T08:11:26;23.40;99.90
46231;DHT22;31949;51.404;-0.038;2022-07-24T08:13:54;23.20;99.70
46231;DHT22;31949;51.404;-0.038;2022-07-24T08:16:21;23.50;99.60
46231;DHT22;31949;51.404;-0.038;2022-07-24T08:18:48;23.60;99.50
46231;DHT22;31949;51.404;-0.038;2022-07-24T08:21:18;23.40;99.90
46231;DHT22;31949;51.404;-0.038;2022-07-24T08:23:45;23.50;99.90
46231;DHT22;31949;51.404;-0.038;2022-07-24T08:26:13;23.20;99.90
46231;DHT22;31949;51.404;-0.038;2022-07-24T08:28:40;23.40;99.70
46231;DHT22;31949;51.404;-0.038;2022-07-24T08:31:07;23.50;99.40
46231;DHT22;31949;51.404;-0.038;2022-07-24T08:33:35;23.50;99.20
46231;DHT22;31949;51.404;-0.038;2022-07-24T08:36:02;23.70;98.80
46231;DHT22;31949;51.404;-0.038;2022-07-24T08:38:29;24.00;98.10
46231;DHT22;31949;51.404;-0.038;2022-07-24T08:40:57;23.80;97.40
46231;DHT22;31949;51.404;-0.038;2022-07-24T08:43:24;23.90;97.80
46231;DHT22;31949;51.404;-0.038;2022-07-24T08:45:52;24.10;98.00
46231;DHT22;31949;51.404;-0.038;2022-07-24T08:48:22;24.40;97.20
46231;DHT22;31949;51.404;-0.038;2022-07-24T08:50:50;24.30;96.70
46231;DHT22;31949;51.404;-0.038;2022-07-24T08:53:20;24.40;96.50
46231;DHT22;31949;51.404;-0.038;2022-07-24T08:55:47;24.30;96.30
46231;DHT22;31949;51.404;-0.038;2022-07-24T08:58:15;24.40;96.00
46231;DHT22;31949;51.404;-0.038;2022-07-24T09:00:43;24.70;96.00
46231;DHT22;31949;51.404;-0.038;2022-07-24T09:03:10;24.60;96.40
46231;DHT22;31949;51.404;-0.038;2022-07-24T09:05:56;24.60;95.60
46231;DHT22;31949;51.404;-0.038;2022-07-24T09:08:24;24.60;95.60
46231;DHT22;31949;51.404;-0.038;2022-07-24T09:10:59;24.80;96.00
46231;DHT22;31949;51.404;-0.038;2022-07-24T09:13:27;24.80;95.50
46231;DHT22;31949;51.404;-0.038;2022-07-24T09:16:25;24.90;96.20
46231;DHT22;31949;51.404;-0.038;2022-07-24T09:19:05;25.10;94.80
46231;DHT22;31949;51.404;-0.038;2022-07-24T09:21:37;25.10;95.80
46231;DHT22;31949;51.404;-0.038;2022-07-24T09:24:16;25.20;94.50
46231;DHT22;31949;51.404;-0.038;2022-07-24T09:29:18;25.00;94.90
46231;DHT22;31949;51.404;-0.038;2022-07-24T09:32:00;25.30;94.30
46231;DHT22;31949;51.404;-0.038;2022-07-24T09:34:30;25.30;95.50
46231;DHT22;31949;51.404;-0.038;2022-07-24T09:37:07;25.50;93.80
46231;DHT22;31949;51.404;-0.038;2022-07-24T09:39:36;25.40;93.30
46231;DHT22;31949;51.404;-0.038;2022-07-24T09:42:05;25.40;93.80
46231;DHT22;31949;51.404;-0.038;2022-07-24T09:44:34;25.50;94.30
46231;DHT22;31949;51.404;-0.038;2022-07-24T09:47:07;25.50;93.70
46231;DHT22;31949;51.404;-0.038;2022-07-24T09:49:36;25.70;94.20
46231;DHT22;31949;51.404;-0.038;2022-07-24T09:52:14;25.60;93.10
46231;DHT22;31949;51.404;-0.038;2022-07-24T09:54:44;25.60;93.60
46231;DHT22;31949;51.404;-0.038;2022-07-24T10:02:44;25.70;92.80
46231;DHT22;31949;51.404;-0.038;2022-07-24T10:05:13;25.90;92.60
46231;DHT22;31949;51.404;-0.038;2022-07-24T10:07:48;25.90;92.80
46231;DHT22;31949;51.404;-0.038;2022-07-24T10:10:15;26.10;92.20
46231;DHT22;31949;51.404;-0.038;2022-07-24T10:12:45;26.00;92.00
46231;DHT22;31949;51.404;-0.038;2022-07-24T10:15:13;25.90;91.80
46231;DHT22;31949;51.404;-0.038;2022-07-24T10:20:08;25.90;91.80
46231;DHT22;31949;51.404;-0.038;2022-07-24T10:23:03;26.10;92.50
46231;DHT22;31949;51.404;-0.038;2022-07-24T10:25:47;25.90;92.20
46231;DHT22;31949;51.404;-0.038;2022-07-24T10:31:13;26.10;91.80
46231;DHT22;31949;51.404;-0.038;2022-07-24T10:33:42;26.30;91.80
46231;DHT22;31949;51.404;-0.038;2022-07-24T10:36:26;26.40;92.00
46231;DHT22;31949;51.404;-0.038;2022-07-24T10:39:25;26.30;92.30
46231;DHT22;31949;51.404;-0.038;2022-07-24T10:42:01;26.20;91.80
46231;DHT22;31949;51.404;-0.038;2022-07-24T10:44:28;26.20;91.10
46231;DHT22;31949;51.404;-0.038;2022-07-24T10:46:58;26.30;91.30
46231;DHT22;31949;51.404;-0.038;2022-07-24T10:52:05;26.40;91.20
46231;DHT22;31949;51.404;-0.038;2022-07-24T10:54:35;26.40;89.90
46231;DHT22;31949;51.404;-0.038;2022-07-24T10:57:02;26.40;90.40
46231;DHT22;31949;51.404;-0.038;2022-07-24T10:59:35;26.60;90.50
46231;DHT22;31949;51.404;-0.038;2022-07-24T11:02:29;26.70;90.90
46231;DHT22;31949;51.404;-0.038;2022-07-24T11:05:25;26.80;91.40
46231;DHT22;31949;51.404;-0.038;2022-07-24T11:10:53;27.00;91.40
46231;DHT22;31949;51.404;-0.038;2022-07-24T11:21:41;27.00;91.00
46231;DHT22;31949;51.404;-0.038;2022-07-24T11:26:58;27.20;90.80
46231;DHT22;31949;51.404;-0.038;2022-07-24T11:29:28;27.20;91.20
46231;DHT22;31949;51.404;-0.038;2022-07-24T11:32:04;27.30;90.40
46231;DHT22;31949;51.404;-0.038;2022-07-24T11:34:49;27.40;90.30
46231;DHT22;31949;51.404;-0.038;2022-07-24T11:37:17;27.30;91.20
46231;DHT22;31949;51.404;-0.038;2022-07-24T11:39:49;27.30;90.30
46231;DHT22;31949;51.404;-0.038;2022-07-24T11:42:20;27.30;90.40
46231;DHT22;31949;51.404;-0.038;2022-07-24T11:44:50;27.40;90.20
46231;DHT22;31949;51.404;-0.038;2022-07-24T11:47:20;27.50;90.60
46231;DHT22;31949;51.404;-0.038;2022-07-24T11:49:52;27.60;90.70
46231;DHT22;31949;51.404;-0.038;2022-07-24T11:52:28;27.60;90.20
46231;DHT22;31949;51.404;-0.038;2022-07-24T11:55:03;27.40;90.90
46231;DHT22;31949;51.404;-0.038;2022-07-24T11:57:48;27.50;90.20
46231;DHT22;31949;51.404;-0.038;2022-07-24T12:00:36;27.70;90.50
46231;DHT22;31949;51.404;-0.038;2022-07-24T12:03:05;27.80;90.40
46231;DHT22;31949;51.404;-0.038;2022-07-24T12:05:35;27.80;89.80
46231;DHT22;31949;51.404;-0.038;2022-07-24T12:08:16;27.50;90.30
46231;DHT22;31949;51.404;-0.038;2022-07-24T12:10:46;27.80;90.30
46231;DHT22;31949;51.404;-0.038;2022-07-24T12:13:16;27.80;90.10
46231;DHT22;31949;51.404;-0.038;2022-07-24T12:15:44;27.80;90.40
46231;DHT22;31949;51.404;-0.038;2022-07-24T12:18:12;27.90;90.40
46231;DHT22;31949;51.404;-0.038;2022-07-24T12:21:00;28.00;90.10
46231;DHT22;31949;51.404;-0.038;2022-07-24T12:23:28;28.00;89.90
46231;DHT22;31949;51.404;-0.038;2022-07-24T12:26:00;27.90;89.80
46231;DHT22;31949;51.404;-0.038;2022-07-24T12:28:27;27.70;90.00
46231;DHT22;31949;51.404;-0.038;2022-07-24T12:30:54;27.60;89.50
46231;DHT22;31949;51.404;-0.038;2022-07-24T12:33:24;27.50;90.30
46231;DHT22;31949;51.404;-0.038;2022-07-24T12:35:56;27.40;90.30
46231;DHT22;31949;51.404;-0.038;2022-07-24T12:38:32;27.40;90.70
46231;DHT22;31949;51.404;-0.038;2022-07-24T12:41:08;27.60;90.40
46231;DHT22;31949;51.404;-0.038;2022-07-24T12:43:56;27.60;89.70
46231;DHT22;31949;51.404;-0.038;2022-07-24T12:46:31;27.60;88.70
46231;DHT22;31949;51.404;-0.038;2022-07-24T12:49:00;27.80;89.00
46231;DHT22;31949;51.404;-0.038;2022-07-24T12:54:17;28.00;88.30
46231;DHT22;31949;51.404;-0.038;2022-07-24T12:56:46;28.00;87.70
46231;DHT22;31949;51.404;-0.038;2022-07-24T12:59:32;28.00;88.30
46231;DHT22;31949;51.404;-0.038;2022-07-24T13:04:50;28.20;87.80
46231;DHT22;31949;51.404;-0.038;2022-07-24T13:07:24;28.10;88.30
46231;DHT22;31949;51.404;-0.038;2022-07-24T13:09:51;28.10;87.60
46231;DHT22;31949;51.404;-0.038;2022-07-24T13:12:20;28.00;87.90
46231;DHT22;31949;51.404;-0.038;2022-07-24T13:14:47;27.90;89.00
46231;DHT22;31949;51.404;-0.038;2022-07-24T13:17:16;27.90;88.40
46231;DHT22;31949;51.404;-0.038;2022-07-24T13:19:45;27.60;90.10
46231;DHT22;31949;51.404;-0.038;2022-07-24T13:22:14;27.60;89.60
46231;DHT22;31949;51.404;-0.038;2022-07-24T13:24:42;27.40;90.00
46231;DHT22;31949;51.404;-0.038;2022-07-24T13:27:11;27.50;89.90
46231;DHT22;31949;51.404;-0.038;2022-07-24T13:29:42;27.60;89.90
46231;DHT22;31949;51.404;-0.038;2022-07-24T13:32:09;27.70;90.00
46231;DHT22;31949;51.404;-0.038;2022-07-24T13:34:37;27.80;89.40
46231;DHT22;31949;51.404;-0.038;2022-07-24T13:37:07;28.10;89.80
46231;DHT22;31949;51.404;-0.038;2022-07-24T13:39:36;28.10;88.30
46231;DHT22;31949;51.404;-0.038;2022-07-24T13:42:07;28.20;88.20
46231;DHT22;31949;51.404;-0.038;2022-07-24T13:44:34;28.30;87.70
46231;DHT22;31949;51.404;-0.038;2022-07-24T13:47:02;28.10;88.80
46231;DHT22;31949;51.404;-0.038;2022-07-24T13:49:30;28.10;88.30
46231;DHT22;31949;51.404;-0.038;2022-07-24T13:51:58;28.10;88.60
46231;DHT22;31949;51.404;-0.038;2022-07-24T13:54:25;28.00;87.30
46231;DHT22;31949;51.404;-0.038;2022-07-24T13:56:54;28.10;87.40
46231;DHT22;31949;51.404;-0.038;2022-07-24T13:59:23;28.10;87.60
46231;DHT22;31949;51.404;-0.038;2022-07-24T14:01:50;28.10;87.90
46231;DHT22;31949;51.404;-0.038;2022-07-24T14:04:18;28.10;87.80
46231;DHT22;31949;51.404;-0.038;2022-07-24T14:06:57;28.00;87.80
46231;DHT22;31949;51.404;-0.038;2022-07-24T14:09:25;28.20;87.80
46231;DHT22;31949;51.404;-0.038;2022-07-24T14:11:53;28.20;88.50
46231;DHT22;31949;51.404;-0.038;2022-07-24T14:14:20;28.10;87.30
46231;DHT22;31949;51.404;-0.038;2022-07-24T14:16:48;27.80;87.70
46231;DHT22;31949;51.404;-0.038;2022-07-24T14:19:15;27.80;87.80
46231;DHT22;31949;51.404;-0.038;2022-07-24T14:21:43;27.80;87.50
46231;DHT22;31949;51.404;-0.038;2022-07-24T14:24:18;27.80;87.90
46231;DHT22;31949;51.404;-0.038;2022-07-24T14:26:48;27.90;89.40
46231;DHT22;31949;51.404;-0.038;2022-07-24T14:29:16;27.90;87.30
46231;DHT22;31949;51.404;-0.038;2022-07-24T14:31:43;27.70;87.60
46231;DHT22;31949;51.404;-0.038;2022-07-24T14:34:11;27.60;88.20
46231;DHT22;31949;51.404;-0.038;2022-07-24T14:36:38;27.70;86.90
46231;DHT22;31949;51.404;-0.038;2022-07-24T14:39:06;27.50;86.30
46231;DHT22;31949;51.404;-0.038;2022-07-24T14:41:34;27.70;86.90
46231;DHT22;31949;51.404;-0.038;2022-07-24T14:44:02;28.00;86.40
46231;DHT22;31949;51.404;-0.038;2022-07-24T14:46:37;27.90;86.30
46231;DHT22;31949;51.404;-0.038;2022-07-24T14:49:04;28.00;85.90
46231;DHT22;31949;51.404;-0.038;2022-07-24T14:51:32;27.80;86.10
46231;DHT22;31949;51.404;-0.038;2022-07-24T14:53:59;27.80;86.20
46231;DHT22;31949;51.404;-0.038;2022-07-24T14:56:26;27.60;86.50
46231;DHT22;31949;51.404;-0.038;2022-07-24T14:58:54;27.40;85.20
46231;DHT22;31949;51.404;-0.038;2022-07-24T15:01:21;27.50;85.80
46231;DHT22;31949;51.404;-0.038;2022-07-24T15:03:49;27.70;85.00
46231;DHT22;31949;51.404;-0.038;2022-07-24T15:06:17;27.80;84.20
46231;DHT22;31949;51.404;-0.038;2022-07-24T15:08:45;27.70;83.00
46231;DHT22;31949;51.404;-0.038;2022-07-24T15:11:12;27.70;83.00
46231;DHT22;31949;51.404;-0.038;2022-07-24T15:13:40;27.70;82.90
46231;DHT22;31949;51.404;-0.038;2022-07-24T15:16:08;27.80;83.60
46231;DHT22;31949;51.404;-0.038;2022-07-24T15:18:35;28.00;82.30
46231;DHT22;31949;51.404;-0.038;2022-07-24T15:21:04;28.00;81.70
46231;DHT22;31949;51.404;-0.038;2022-07-24T15:23:32;27.80;81.40
46231;DHT22;31949;51.404;-0.038;2022-07-24T15:25:59;27.80;80.90
46231;DHT22;31949;51.404;-0.038;2022-07-24T15:28:26;27.80;81.40
46231;DHT22;31949;51.404;-0.038;2022-07-24T15:30:53;27.70;81.00
46231;DHT22;31949;51.404;-0.038;2022-07-24T15:33:21;27.60;81.00
46231;DHT22;31949;51.404;-0.038;2022-07-24T15:35:51;27.70;81.00
46231;DHT22;31949;51.404;-0.038;2022-07-24T15:38:18;27.70;81.10
46231;DHT22;31949;51.404;-0.038;2022-07-24T15:40:46;27.80;80.10
46231;DHT22;31949;51.404;-0.038;2022-07-24T15:43:15;27.90;79.60
46231;DHT22;31949;51.404;-0.038;2022-07-24T15:45:44;27.70;79.50
46231;DHT22;31949;51.404;-0.038;2022-07-24T15:48:12;27.80;80.40
46231;DHT22;31949;51.404;-0.038;2022-07-24T15:50:39;27.70;80.30
46231;DHT22;31949;51.404;-0.038;2022-07-24T15:53:06;27.70;80.10
46231;DHT22;31949;51.404;-0.038;2022-07-24T15:55:33;27.50;79.90
46231;DHT22;31949;51.404;-0.038;2022-07-24T15:58:01;27.30;80.30
46231;DHT22;31949;51.404;-0.038;2022-07-24T16:00:28;27.20;81.80
46231;DHT22;31949;51.404;-0.038;2022-07-24T16:02:56;27.00;81.00